Terminal Aerodrome Forecast
Issued by NWS Louisville, KY

Home | Current Version | Previous Version | Text Only | Print | Product List | Glossary On
Versions: 1 2 3 4 5 6 7 8 9 10 11 12 13 14 15 16
041
FTUS43 KLMK 240530
TAFBWG
TAF
KBWG 240530Z 2406/2506 30007KT P6SM OVC011
     FM241500 VRB04KT P6SM BKN025
     FM241800 18005KT P6SM SCT030
     FM250000 16005KT P6SM FEW250=

USA.gov is the U.S. government's official web portal to all federal, state and local government web resources and services.